Time;durP1;ratioP1;P1;durP2;ratioP2;P2;SDS_P1;SDS_P2;PMS_P1;PMS_P2;Temp;Humidity;BMP_temperature;BMP_pressure;BME280_temperature;BME280_humidity;BME280_pressure;Samples;Min_cycle;Max_cycle;Signal;HPM_P1;HPM_P2
2021/01/25 00:01:34;;;;;;;48.93;28.97;;;;;;;1.82;88.24;98335.76;1814900;77;21020;-69
2021/01/25 00:04:00;;;;;;;55.48;28.25;;;;;;;1.70;88.67;98334.66;1815122;77;27654;-68
2021/01/25 00:06:25;;;;;;;44.13;25.97;;;;;;;1.73;88.94;98336.17;1809071;77;24219;-70
2021/01/25 00:08:51;;;;;;;50.43;28.70;;;;;;;1.78;88.79;98333.45;1812448;77;21622;-70
2021/01/25 00:11:17;;;;;;;53.73;26.97;;;;;;;1.69;88.82;98336.91;1812883;77;22170;-70
2021/01/25 00:13:43;;;;;;;53.00;26.73;;;;;;;1.78;88.76;98336.05;1811575;77;21692;-69
2021/01/25 00:16:09;;;;;;;50.73;27.67;;;;;;;1.64;88.82;98327.92;1798127;77;27389;-69
2021/01/25 00:18:35;;;;;;;50.10;23.75;;;;;;;1.67;88.95;98332.84;1816015;77;21193;-68
2021/01/25 00:21:01;;;;;;;49.97;27.90;;;;;;;1.63;88.85;98333.59;1813458;77;21360;-70
2021/01/25 00:23:27;;;;;;;54.23;27.47;;;;;;;1.61;88.90;98331.63;1811679;77;22055;-69
2021/01/25 00:25:52;;;;;;;49.57;28.80;;;;;;;1.57;88.89;98332.86;1812897;76;21031;-68
2021/01/25 00:28:18;;;;;;;58.27;28.10;;;;;;;1.46;89.33;98339.55;1812374;76;27672;-68
2021/01/25 00:30:44;;;;;;;53.07;27.50;;;;;;;1.49;89.39;98339.27;1811807;77;26157;-68
2021/01/25 00:33:10;;;;;;;52.17;26.97;;;;;;;1.53;89.26;98339.33;1812894;77;21602;-68
2021/01/25 00:35:35;;;;;;;49.07;28.30;;;;;;;1.41;89.28;98342.13;1810723;77;21597;-68
2021/01/25 00:38:01;;;;;;;54.93;26.00;;;;;;;1.41;89.44;98343.42;1816080;77;21803;-68
2021/01/25 00:40:27;;;;;;;57.80;27.85;;;;;;;1.40;89.44;98332.67;1812943;77;28665;-68
2021/01/25 00:42:52;;;;;;;52.73;27.50;;;;;;;1.29;89.58;98335.45;1816421;77;24209;-68
2021/01/25 00:45:18;;;;;;;46.77;26.97;;;;;;;1.32;89.82;98335.17;1812906;77;21304;-68
2021/01/25 00:47:44;;;;;;;47.73;26.73;;;;;;;1.22;89.95;98346.07;1818414;77;22580;-67
2021/01/25 00:50:10;;;;;;;57.27;26.93;;;;;;;1.07;90.52;98347.83;1813797;77;21003;-71
2021/01/25 00:52:36;;;;;;;52.67;26.27;;;;;;;1.13;90.31;98348.21;1816472;77;21534;-67
2021/01/25 00:55:03;;;;;;;51.05;26.20;;;;;;;1.04;90.57;98340.31;1819708;77;27557;-67
2021/01/25 00:57:29;;;;;;;48.58;25.20;;;;;;;1.06;90.53;98330.58;1814116;76;21983;-68
2021/01/25 00:59:55;;;;;;;50.10;26.40;;;;;;;1.17;90.55;98333.98;1814423;77;21668;-68
2021/01/25 01:02:20;;;;;;;50.90;26.30;;;;;;;1.25;90.06;98335.39;1815477;77;21582;-68
2021/01/25 01:04:46;;;;;;;50.77;26.07;;;;;;;1.24;89.92;98342.84;1816363;77;25799;-68
2021/01/25 01:07:12;;;;;;;45.43;24.70;;;;;;;1.39;89.94;98345.33;1815489;77;24221;-67
2021/01/25 01:09:38;;;;;;;45.83;25.13;;;;;;;1.50;89.55;98341.73;1814476;77;21421;-68
2021/01/25 01:12:05;;;;;;;48.05;23.18;;;;;;;1.64;89.24;98345.64;1815853;77;21193;-68
2021/01/25 01:14:31;;;;;;;46.02;23.57;;;;;;;1.70;88.61;98349.46;1814827;77;21210;-67
2021/01/25 01:16:57;;;;;;;47.27;25.03;;;;;;;1.70;88.49;98354.17;1812656;77;26909;-67
2021/01/25 01:19:23;;;;;;;44.63;25.57;;;;;;;1.77;88.33;98350.05;1815640;77;26177;-67
2021/01/25 01:21:48;;;;;;;48.67;24.73;;;;;;;1.79;88.04;98360.31;1813520;77;21744;-67
2021/01/25 01:24:15;;;;;;;44.17;25.73;;;;;;;1.93;87.94;98362.42;1814746;77;22522;-68
2021/01/25 01:26:41;;;;;;;47.23;22.98;;;;;;;2.01;87.68;98359.09;1829429;77;21196;-69
2021/01/25 01:29:07;;;;;;;41.50;23.73;;;;;;;2.03;87.49;98370.66;1826595;77;26794;-70
2021/01/25 01:31:33;;;;;;;42.10;23.85;;;;;;;2.09;87.35;98366.98;1824895;77;25872;-66
2021/01/25 01:33:59;;;;;;;48.27;23.97;;;;;;;2.17;87.16;98363.65;1833480;77;21444;-67
2021/01/25 01:36:24;;;;;;;40.20;23.73;;;;;;;2.19;86.86;98360.90;1832893;77;22587;-67
2021/01/25 01:38:50;;;;;;;48.67;24.53;;;;;;;2.18;86.61;98361.88;1835585;76;21794;-67
2021/01/25 01:41:16;;;;;;;45.57;24.87;;;;;;;2.21;86.58;98367.61;1825675;77;27850;-68
2021/01/25 01:43:47;;;;;;;45.10;25.05;;;;;;;2.09;86.36;98366.98;1829343;77;25262;-69
2021/01/25 01:46:13;;;;;;;46.20;22.35;;;;;;;2.24;86.42;98363.41;1837372;77;21199;-69
2021/01/25 01:48:38;;;;;;;43.33;24.37;;;;;;;2.21;85.84;98355.08;1832652;76;23574;-69
2021/01/25 01:51:05;;;;;;;43.20;24.83;;;;;;;2.26;86.15;98363.27;1829229;77;21266;-69
2021/01/25 01:53:30;;;;;;;47.35;23.60;;;;;;;2.24;85.74;98363.91;1791810;77;21167;-70
2021/01/25 01:55:56;;;;;;;38.02;22.25;;;;;;;2.34;85.84;98360.23;1828221;77;26488;-69
2021/01/25 01:58:23;;;;;;;38.37;23.00;;;;;;;2.40;85.47;98352.81;1825412;77;21557;-69
2021/01/25 02:00:49;;;;;;;43.02;23.60;;;;;;;2.47;85.34;98346.87;1834973;77;21197;-69
2021/01/25 02:03:15;;;;;;;38.95;22.90;;;;;;;2.49;85.24;98347.53;1832496;77;21506;-68
2021/01/25 02:05:41;;;;;;;39.73;23.55;;;;;;;2.48;85.05;98351.09;1827711;77;26639;-68
2021/01/25 02:08:07;;;;;;;45.88;23.02;;;;;;;2.54;85.03;98354.09;1829833;77;21180;-69
2021/01/25 02:10:32;;;;;;;43.50;24.30;;;;;;;2.59;84.87;98355.75;1831101;77;21311;-69
2021/01/25 02:13:00;;;;;;;43.87;24.00;;;;;;;2.60;84.99;98358.70;1827796;77;26230;-69
2021/01/25 02:15:26;;;;;;;42.65;23.47;;;;;;;2.65;84.80;98353.85;1827984;77;21188;-69
2021/01/25 02:17:52;;;;;;;39.63;23.27;;;;;;;2.68;84.58;98358.77;1830378;77;21555;-69
2021/01/25 02:20:26;;;;;;;43.17;23.90;;;;;;;2.60;84.10;98358.70;1825481;77;21156;-69
2021/01/25 02:23:03;;;;;;;41.98;23.75;;;;;;;2.64;84.37;98365.23;1828888;77;21535;-70
2021/01/25 02:25:37;;;;;;;42.60;22.75;;;;;;;2.62;84.35;98365.38;1822836;77;21106;-70
2021/01/25 02:28:04;;;;;;;41.70;22.62;;;;;;;2.65;84.50;98364.27;1814068;77;21240;-70
2021/01/25 02:30:29;;;;;;;37.45;21.65;;;;;;;2.57;84.48;98365.52;1787752;77;21124;-70
2021/01/25 02:32:55;;;;;;;38.83;22.10;;;;;;;2.60;84.23;98366.52;1815292;77;26663;-70
2021/01/25 02:35:21;;;;;;;39.73;22.77;;;;;;;2.52;84.50;98365.96;1816113;77;21832;-70
2021/01/25 02:37:47;;;;;;;37.50;20.17;;;;;;;2.64;84.56;98361.33;1780860;77;27400;-70
2021/01/25 02:40:14;;;;;;;35.40;20.67;;;;;;;2.71;84.22;98368.89;1816139;76;24930;-70
2021/01/25 02:42:40;;;;;;;36.70;19.20;;;;;;;2.76;84.16;98366.64;1815798;77;21237;-69
2021/01/25 02:45:07;;;;;;;40.23;22.20;;;;;;;2.83;83.76;98368.99;1814136;77;21129;-69
2021/01/25 02:47:33;;;;;;;38.65;22.35;;;;;;;2.78;83.49;98367.33;1813982;77;21645;-70
2021/01/25 02:49:59;;;;;;;39.33;22.67;;;;;;;2.69;83.33;98370.84;1815306;77;21173;-69
2021/01/25 02:52:25;;;;;;;39.83;21.03;;;;;;;2.67;83.63;98371.45;1816041;77;21807;-70
2021/01/25 02:54:51;;;;;;;37.13;21.87;;;;;;;2.72;83.57;98377.05;1816681;77;27947;-69
2021/01/25 02:57:16;;;;;;;38.28;21.37;;;;;;;2.79;83.62;98370.75;1812254;77;26282;-69
2021/01/25 02:59:42;;;;;;;35.30;20.97;;;;;;;2.71;83.25;98375.90;1819504;77;21447;-69
2021/01/25 03:02:11;;;;;;;40.80;23.57;;;;;;;2.81;83.69;98370.94;1814133;77;26865;-70
2021/01/25 03:04:37;;;;;;;35.73;21.50;;;;;;;2.88;83.68;98372.45;1818917;77;21649;-69
2021/01/25 03:07:03;;;;;;;39.83;22.85;;;;;;;2.96;83.40;98365.17;1813992;77;28288;-69
2021/01/25 03:09:29;;;;;;;36.73;20.62;;;;;;;3.02;83.22;98367.18;1817711;77;21149;-70
2021/01/25 03:11:58;;;;;;;35.35;21.10;;;;;;;2.99;82.78;98366.18;1817398;77;22173;-69
2021/01/25 03:14:24;;;;;;;38.80;21.57;;;;;;;2.96;82.67;98368.59;1816759;77;21683;-69
2021/01/25 03:16:49;;;;;;;41.67;22.50;;;;;;;2.91;82.66;98373.95;1816127;77;21251;-70
2021/01/25 03:19:15;;;;;;;35.48;21.02;;;;;;;2.91;83.08;98373.95;1816622;77;28967;-70
2021/01/25 03:21:48;;;;;;;41.55;22.82;;;;;;;2.95;82.91;98372.66;1815726;77;26760;-70
2021/01/25 03:24:14;;;;;;;38.73;22.48;;;;;;;2.81;82.82;98380.06;1816392;77;21745;-69
2021/01/25 03:26:39;;;;;;;36.53;21.57;;;;;;;2.73;83.27;98383.88;1806029;78;26413;-69
2021/01/25 03:29:05;;;;;;;38.37;20.90;;;;;;;2.69;83.85;98382.56;1804827;77;20963;-69
2021/01/25 03:31:31;;;;;;;42.83;22.70;;;;;;;2.73;83.54;98379.97;1805443;79;28776;-70
2021/01/25 03:33:57;;;;;;;40.38;22.90;;;;;;;2.77;83.83;98374.80;1804736;78;26756;-70
2021/01/25 03:36:23;;;;;;;39.00;22.42;;;;;;;2.71;83.42;98377.20;1804294;79;21205;-70
2021/01/25 03:38:49;;;;;;;40.78;21.52;;;;;;;2.82;83.75;98369.95;1804189;79;21187;-70
2021/01/25 03:41:15;;;;;;;37.17;21.27;;;;;;;2.88;83.55;98374.56;1802156;79;24167;-70
2021/01/25 03:43:40;;;;;;;36.70;21.35;;;;;;;2.93;83.41;98372.00;1801178;79;27314;-70
2021/01/25 03:46:06;;;;;;;36.68;20.92;;;;;;;3.01;83.31;98378.08;1802433;79;26831;-70
2021/01/25 03:48:32;;;;;;;38.25;21.20;;;;;;;3.03;83.19;98375.31;1804465;79;21919;-70
2021/01/25 03:50:57;;;;;;;36.00;20.90;;;;;;;3.04;82.87;98379.57;1803903;79;26448;-70
2021/01/25 03:53:23;;;;;;;37.70;21.43;;;;;;;2.97;82.82;98378.56;1804933;79;23776;-70
2021/01/25 03:55:49;;;;;;;37.13;21.15;;;;;;;2.95;83.16;98384.39;1803530;79;28895;-70
2021/01/25 03:58:14;;;;;;;35.78;20.70;;;;;;;2.98;82.94;98384.09;1806563;79;26789;-70
2021/01/25 04:00:40;;;;;;;38.23;20.97;;;;;;;2.96;82.95;98387.34;1801932;79;22065;-70
2021/01/25 04:03:06;;;;;;;37.30;19.87;;;;;;;2.93;82.93;98398.07;1802414;79;27428;-70
2021/01/25 04:05:32;;;;;;;39.73;20.83;;;;;;;2.86;83.36;98397.37;1803523;79;25605;-69
2021/01/25 04:07:57;;;;;;;35.50;20.90;;;;;;;2.82;83.47;98401.23;1804242;79;27553;-70
2021/01/25 04:10:23;;;;;;;40.00;21.77;;;;;;;2.67;83.84;98410.55;1804668;79;26012;-70
2021/01/25 04:12:49;;;;;;;39.00;21.53;;;;;;;2.57;84.22;98414.53;1803002;79;21687;-69
2021/01/25 04:15:15;;;;;;;39.80;21.97;;;;;;;2.65;84.35;98413.79;1803253;79;24876;-69
2021/01/25 04:17:41;;;;;;;41.55;21.95;;;;;;;2.74;84.27;98414.20;1805050;79;21580;-70
2021/01/25 04:20:07;;;;;;;38.33;21.45;;;;;;;2.83;84.07;98418.52;1803907;79;28271;-69
2021/01/25 04:22:33;;;;;;;42.13;22.52;;;;;;;2.86;83.60;98416.92;1804562;79;21217;-70
2021/01/25 04:24:59;;;;;;;39.88;22.02;;;;;;;2.75;83.82;98417.16;1804837;79;21669;-70
2021/01/25 04:27:24;;;;;;;37.40;21.83;;;;;;;2.82;83.96;98421.28;1804341;79;24419;-70
2021/01/25 04:29:51;;;;;;;38.37;21.70;;;;;;;2.76;84.03;98420.56;1804913;79;22756;-69
2021/01/25 04:32:18;;;;;;;41.53;22.35;;;;;;;2.84;83.94;98420.63;1806752;79;21154;-69
2021/01/25 04:34:44;;;;;;;43.83;21.30;;;;;;;2.86;83.66;98420.83;1804181;79;21523;-69
2021/01/25 04:37:09;;;;;;;36.00;20.90;;;;;;;2.84;83.50;98421.48;1805032;79;21291;-69
2021/01/25 04:39:37;;;;;;;40.33;22.35;;;;;;;2.86;83.65;98419.53;1806063;79;26076;-69
2021/01/25 04:42:04;;;;;;;37.23;20.90;;;;;;;2.90;83.55;98415.31;1805327;78;21134;-69
2021/01/25 04:44:30;;;;;;;;;;;;;;;2.93;83.37;98411.11;1805015;79;21205;-69
2021/01/25 04:46:55;;;;;;;37.05;20.60;;;;;;;2.88;83.41;98416.27;1801707;79;20176;-69
2021/01/25 04:49:21;;;;;;;34.77;19.73;;;;;;;2.90;83.45;98414.02;1778736;79;22333;-69
2021/01/25 04:51:47;;;;;;;35.73;20.33;;;;;;;2.88;83.02;98414.97;1799047;79;23448;-69
2021/01/25 04:54:13;;;;;;;39.47;21.37;;;;;;;2.79;83.44;98415.87;1803112;79;21829;-69
2021/01/25 04:56:39;;;;;;;38.20;20.72;;;;;;;2.75;83.61;98414.55;1803177;79;21215;-69
2021/01/25 04:59:05;;;;;;;37.95;20.82;;;;;;;2.76;83.81;98419.27;1802745;79;28229;-69
2021/01/25 05:01:30;;;;;;;36.20;20.30;;;;;;;2.79;83.68;98421.08;1804216;79;21730;-69
2021/01/25 05:03:56;;;;;;;36.10;21.17;;;;;;;2.77;83.54;98420.42;1803976;79;23479;-69
2021/01/25 05:06:22;;;;;;;38.03;21.37;;;;;;;2.75;83.93;98411.94;1803223;78;21788;-68
2021/01/25 05:08:48;;;;;;;36.65;21.15;;;;;;;2.75;83.73;98409.34;1805079;78;28332;-68
2021/01/25 05:11:16;;;;;;;36.55;20.52;;;;;;;2.74;83.77;98408.98;1802522;79;26807;-68
2021/01/25 05:13:42;;;;;;;37.78;21.07;;;;;;;2.70;83.84;98408.94;1807114;79;21527;-69
2021/01/25 05:16:20;;;;;;;38.97;21.83;;;;;;;2.60;84.00;98409.52;1802573;79;25468;-69
2021/01/25 05:18:49;;;;;;;36.15;20.65;;;;;;;2.51;84.57;98414.63;1802877;79;21241;-69
2021/01/25 05:21:15;;;;;;;38.53;21.62;;;;;;;2.45;84.80;98415.22;1801356;79;21218;-70
2021/01/25 05:23:41;;;;;;;38.23;21.82;;;;;;;2.59;84.82;98412.59;1806553;78;26835;-69
2021/01/25 05:26:09;;;;;;;43.37;21.50;;;;;;;2.65;84.47;98416.39;1806059;78;21706;-69
2021/01/25 05:28:42;;;;;;;35.33;20.60;;;;;;;2.57;84.45;98409.81;1810900;77;21224;-70
2021/01/25 05:31:20;;;;;;;36.85;21.45;;;;;;;2.60;84.41;98416.84;1815955;78;21379;-69
2021/01/25 05:33:46;;;;;;;38.42;21.50;;;;;;;2.73;84.29;98421.67;1810307;78;21186;-69
2021/01/25 05:36:13;;;;;;;35.48;21.02;;;;;;;2.79;83.77;98414.56;1817859;78;27857;-68
2021/01/25 05:38:39;;;;;;;37.83;21.05;;;;;;;2.76;83.83;98418.77;1815476;77;21758;-69
2021/01/25 05:41:05;;;;;;;36.57;21.80;;;;;;;2.78;83.63;98425.98;1816680;78;25443;-69
2021/01/25 05:43:32;;;;;;;35.20;20.70;;;;;;;2.78;83.63;98432.50;1812696;78;21635;-70
2021/01/25 05:46:13;;;;;;;42.00;21.57;;;;;;;2.87;83.52;98435.98;1813627;78;21160;-69
2021/01/25 05:48:42;;;;;;;32.55;19.52;;;;;;;2.90;83.21;98436.98;1812544;78;21653;-69
2021/01/25 05:51:17;;;;;;;40.80;23.22;;;;;;;2.76;82.91;98435.72;1813413;77;21385;-69
2021/01/25 05:53:44;;;;;;;40.65;21.80;;;;;;;2.67;83.72;98434.00;1814309;78;21638;-68
2021/01/25 05:56:11;;;;;;;;;;;;;;;2.61;83.78;98422.86;1814174;78;21106;-71
2021/01/25 05:58:37;;;;;;;45.85;21.75;;;;;;;2.61;83.90;98425.47;1811024;78;20428;-70
2021/01/25 06:01:03;;;;;;;39.42;22.52;;;;;;;2.38;84.33;98422.00;1816701;78;21206;-70
2021/01/25 06:03:28;;;;;;;37.93;21.83;;;;;;;2.30;84.75;98429.70;1815221;78;21802;-71
2021/01/25 06:05:54;;;;;;;42.93;23.23;;;;;;;2.13;85.04;98437.34;1814407;78;23978;-72
2021/01/25 06:08:52;;;;;;;37.73;21.80;;;;;;;1.93;86.15;98431.41;1816918;78;21159;-69
2021/01/25 06:11:30;;;;;;;38.78;21.45;;;;;;;1.85;86.56;98431.77;1812603;78;21130;-69
2021/01/25 06:14:28;;;;;;;42.25;21.87;;;;;;;1.89;86.61;98433.94;1815148;78;21925;-69
2021/01/25 06:16:55;;;;;;;39.23;21.60;;;;;;;1.85;86.69;98429.16;1774421;78;40441;-68
2021/01/25 06:19:23;;;;;;;34.67;21.27;;;;;;;2.07;86.50;98430.11;1812109;78;21578;-69
2021/01/25 06:21:50;;;;;;;40.30;21.93;;;;;;;2.06;86.19;98430.25;1816428;78;21531;-69
2021/01/25 06:24:16;;;;;;;45.00;21.60;;;;;;;1.98;86.28;98433.58;1803546;78;21203;-70
2021/01/25 06:26:45;;;;;;;42.35;22.40;;;;;;;2.07;86.50;98428.80;1812592;77;21257;-69
2021/01/25 06:29:11;;;;;;;37.17;21.12;;;;;;;2.00;86.33;98434.23;1808312;77;21610;-69
2021/01/25 06:31:39;;;;;;;39.40;21.93;;;;;;;2.04;86.16;98434.30;1789192;79;23580;-68
2021/01/25 06:34:10;;;;;;;44.77;21.85;;;;;;;2.02;86.22;98436.23;1816543;77;21192;-69
2021/01/25 06:36:37;;;;;;;41.58;22.10;;;;;;;2.10;86.24;98440.23;1808039;77;21177;-69
2021/01/25 06:39:04;;;;;;;37.90;22.07;;;;;;;2.15;86.17;98439.31;1779165;77;21180;-69
2021/01/25 06:41:41;;;;;;;36.85;21.57;;;;;;;2.17;86.01;98438.36;1817498;77;21247;-69
2021/01/25 06:44:08;;;;;;;40.13;20.87;;;;;;;2.25;85.85;98433.23;1819693;77;21177;-67
2021/01/25 06:46:36;;;;;;;42.88;22.15;;;;;;;2.14;85.96;98448.11;1815563;77;21208;-68
2021/01/25 06:49:09;;;;;;;38.48;21.17;;;;;;;2.01;86.12;98445.00;1812746;77;21235;-72
2021/01/25 06:51:42;;;;;;;36.45;21.65;;;;;;;1.97;86.52;98447.55;1797187;77;21126;-68
2021/01/25 06:54:10;;;;;;;42.38;22.40;;;;;;;2.00;86.49;98455.06;1817150;77;22110;-70
2021/01/25 06:56:44;;;;;;;;;;;;;;;2.12;86.36;98450.02;1793629;77;21520;-67
2021/01/25 06:59:11;;;;;;;42.00;21.95;;;;;;;2.07;86.31;98452.23;1814284;77;20319;-69
2021/01/25 07:01:38;;;;;;;43.35;21.73;;;;;;;2.06;86.35;98453.19;1813560;77;21469;-66
2021/01/25 07:04:12;;;;;;;;;;;;;;;2.06;86.43;98445.38;1819006;77;21217;-69
2021/01/25 07:06:38;;;;;;;43.17;22.65;;;;;;;2.02;86.50;98451.86;1811796;77;21620;-72
2021/01/25 07:09:05;;;;;;;41.18;22.75;;;;;;;1.96;86.69;98447.23;1813063;77;21066;-70
2021/01/25 07:11:32;;;;;;;43.92;22.10;;;;;;;1.97;86.97;98449.69;1810846;77;21501;-69
2021/01/25 07:13:58;;;;;;;27.30;15.33;;;;;;;2.10;87.00;98459.77;1812578;77;21304;-70
2021/01/25 07:16:24;;;;;;;40.43;23.02;;;;;;;2.15;86.41;98456.73;1812241;77;21513;-68
2021/01/25 07:18:51;;;;;;;43.47;22.60;;;;;;;2.17;86.17;98456.58;1818862;77;22266;-68
2021/01/25 07:21:17;;;;;;;35.52;20.68;;;;;;;2.23;86.34;98462.52;1811513;77;21214;-69
2021/01/25 07:23:44;;;;;;;40.83;20.88;;;;;;;2.34;86.15;98464.92;1814448;77;21211;-72
2021/01/25 07:26:12;;;;;;;36.90;21.00;;;;;;;2.41;85.60;98462.08;1814588;77;21232;-67
2021/01/25 07:28:38;;;;;;;34.20;19.92;;;;;;;2.44;85.47;98453.97;1812888;76;21170;-68
2021/01/25 07:31:04;;;;;;;36.83;21.43;;;;;;;2.50;85.03;98453.39;1814475;77;21063;-70
2021/01/25 07:33:29;;;;;;;37.67;21.43;;;;;;;2.50;85.04;98450.78;1816300;76;26574;-70
2021/01/25 07:35:55;;;;;;;38.47;21.47;;;;;;;2.58;84.97;98457.03;1701115;76;37427;-69
2021/01/25 07:38:22;;;;;;;40.40;21.80;;;;;;;2.67;84.74;98461.36;1683379;83;27601;-70
2021/01/25 07:40:48;;;;;;;37.00;21.35;;;;;;;2.67;84.32;98461.36;1685827;83;21663;-69
2021/01/25 07:43:16;;;;;;;39.08;20.65;;;;;;;2.63;84.38;98462.64;1684829;83;22435;-68
2021/01/25 07:45:42;;;;;;;36.15;21.30;;;;;;;2.77;84.62;98461.31;1683703;83;21230;-69
2021/01/25 07:48:11;;;;;;;36.93;21.13;;;;;;;2.84;84.43;98463.64;1685134;83;20991;-68
2021/01/25 07:50:38;;;;;;;40.90;22.15;;;;;;;2.87;84.17;98460.28;1683095;83;21229;-67
2021/01/25 07:53:05;;;;;;;40.15;22.30;;;;;;;2.90;83.92;98466.16;1682140;83;21221;-68
2021/01/25 07:55:31;;;;;;;38.80;21.52;;;;;;;2.90;83.74;98466.16;1680356;83;21913;-70
2021/01/25 07:58:10;;;;;;;37.37;22.00;;;;;;;2.88;83.81;98463.70;1681921;84;25387;-69
2021/01/25 08:00:40;;;;;;;39.35;22.05;;;;;;;2.91;83.67;98466.50;1677770;83;21233;-68
2021/01/25 08:03:16;;;;;;;40.48;23.00;;;;;;;2.80;83.74;98477.47;1685946;83;21221;-69
2021/01/25 08:05:42;;;;;;;42.35;22.60;;;;;;;2.82;84.00;98475.53;1683361;83;21221;-69
2021/01/25 08:08:10;;;;;;;41.65;23.57;;;;;;;2.76;84.19;98473.51;1681878;83;21247;-69
2021/01/25 08:10:36;;;;;;;39.78;22.32;;;;;;;2.77;84.17;98469.95;1681000;84;21243;-69
2021/01/25 08:13:19;;;;;;;44.67;23.53;;;;;;;2.77;84.06;98471.25;1683012;83;24632;-68
2021/01/25 08:16:02;;;;;;;42.08;23.30;;;;;;;2.69;84.21;98469.87;1679806;83;21305;-69
2021/01/25 08:18:48;;;;;;;41.37;23.47;;;;;;;2.73;84.32;98467.28;1683449;83;21361;-69
2021/01/25 08:21:15;;;;;;;40.88;23.70;;;;;;;2.68;84.49;98468.22;1683425;84;21870;-69
2021/01/25 08:23:44;;;;;;;46.95;24.37;;;;;;;2.66;84.74;98467.56;1679246;84;21204;-66
2021/01/25 08:26:10;;;;;;;42.15;22.58;;;;;;;2.56;85.02;98470.70;1686279;84;21193;-69
2021/01/25 08:28:42;;;;;;;42.20;23.85;;;;;;;2.61;85.08;98464.55;1670846;85;28473;-68
2021/01/25 08:31:17;;;;;;;41.75;23.83;;;;;;;2.59;85.21;98469.10;1672267;84;21528;-68
2021/01/25 08:33:57;;;;;;;40.40;22.95;;;;;;;2.61;85.38;98465.86;1670199;84;21773;-68
2021/01/25 08:36:35;;;;;;;41.92;24.85;;;;;;;2.63;85.34;98469.16;1672834;83;21250;-67
2021/01/25 08:39:14;;;;;;;44.83;23.55;;;;;;;2.62;85.31;98472.72;1667181;84;21187;-68
2021/01/25 08:41:52;;;;;;;39.92;22.93;;;;;;;2.61;85.44;98464.55;1673750;84;21232;-67
2021/01/25 08:44:20;;;;;;;45.35;24.23;;;;;;;2.64;85.24;98461.66;1671907;84;21202;-67
2021/01/25 08:46:46;;;;;;;42.73;25.02;;;;;;;2.58;85.74;98466.99;1672847;85;23329;-67
2021/01/25 08:49:26;;;;;;;43.37;24.27;;;;;;;2.56;85.96;98469.39;1669603;84;23638;-67
2021/01/25 08:52:07;;;;;;;40.52;23.35;;;;;;;2.58;85.88;98470.06;1670463;84;21557;-68
2021/01/25 08:54:39;;;;;;;42.38;23.32;;;;;;;2.57;85.91;98471.05;1671964;84;21986;-66
2021/01/25 08:57:21;;;;;;;39.08;22.75;;;;;;;2.64;85.50;98475.53;1645729;85;21377;-67
2021/01/25 08:59:47;;;;;;;45.65;23.25;;;;;;;2.61;85.55;98474.98;1644336;85;21840;-67
2021/01/25 09:02:21;;;;;;;42.40;24.17;;;;;;;2.64;85.38;98472.08;1642667;85;25494;-67
2021/01/25 09:04:52;;;;;;;40.38;24.12;;;;;;;2.56;85.53;98468.09;1644684;85;21572;-66
2021/01/25 09:07:20;;;;;;;38.83;23.20;;;;;;;2.53;85.64;98468.38;1645489;85;21644;-67
2021/01/25 09:09:48;;;;;;;43.80;23.35;;;;;;;2.61;85.55;98470.61;1642514;85;21254;-68
2021/01/25 09:12:15;;;;;;;41.20;24.30;;;;;;;2.60;85.40;98478.57;1647001;85;21281;-68
2021/01/25 09:14:41;;;;;;;43.48;23.77;;;;;;;2.59;85.08;98482.13;1642536;85;21231;-68
2021/01/25 09:17:10;;;;;;;36.03;21.47;;;;;;;2.64;85.00;98482.04;1644652;85;22911;-66
2021/01/25 09:19:36;;;;;;;36.08;21.45;;;;;;;2.66;84.34;98476.68;1645589;85;21262;-67
2021/01/25 09:22:04;;;;;;;36.20;21.50;;;;;;;2.61;84.40;98478.89;1644141;85;21238;-67
2021/01/25 09:24:29;;;;;;;42.20;23.18;;;;;;;2.65;84.28;98480.24;1645932;85;21215;-67
2021/01/25 09:26:55;;;;;;;38.17;22.20;;;;;;;2.67;84.33;98490.87;1646836;85;24515;-66
2021/01/25 09:29:21;;;;;;;35.47;21.80;;;;;;;2.69;84.11;98485.51;1645539;85;21853;-66
2021/01/25 09:31:46;;;;;;;37.13;22.13;;;;;;;2.69;83.77;98487.62;1644007;85;29207;-66
2021/01/25 09:34:12;;;;;;;36.15;21.37;;;;;;;2.74;83.62;98484.58;1645448;85;27534;-67
2021/01/25 09:36:38;;;;;;;43.43;22.80;;;;;;;2.79;83.63;98481.03;1645573;85;22226;-67
2021/01/25 09:39:06;;;;;;;36.70;21.17;;;;;;;2.81;83.48;98486.94;1646975;85;24563;-68
2021/01/25 09:41:32;;;;;;;35.65;20.68;;;;;;;2.77;83.49;98483.47;1643490;85;21227;-67
2021/01/25 09:43:57;;;;;;;37.45;20.55;;;;;;;2.86;83.55;98478.19;1645807;85;28368;-68
2021/01/25 09:46:23;;;;;;;31.40;18.92;;;;;;;3.00;83.33;98479.95;1646347;85;27040;-68
2021/01/25 09:48:49;;;;;;;24.87;15.67;;;;;;;2.88;81.96;98486.66;1645834;85;21234;-67
2021/01/25 09:51:15;;;;;;;27.43;15.77;;;;;;;2.77;80.87;98485.59;1643996;85;23561;-66
2021/01/25 09:53:41;;;;;;;28.00;16.30;;;;;;;2.55;81.13;98491.20;1645564;85;20987;-71
2021/01/25 09:56:06;;;;;;;24.40;15.38;;;;;;;2.50;81.33;98482.05;1645637;85;21242;-67
2021/01/25 09:58:34;;;;;;;24.75;14.85;;;;;;;2.70;80.85;98483.22;1644797;85;27460;-67
2021/01/25 10:01:00;;;;;;;22.55;14.65;;;;;;;2.65;80.75;98489.36;1643166;85;21230;-66
2021/01/25 10:03:26;;;;;;;24.80;15.80;;;;;;;2.63;80.63;98486.09;1644081;85;25527;-68
2021/01/25 10:05:51;;;;;;;25.07;15.07;;;;;;;2.62;80.65;98484.45;1644442;85;21584;-67
2021/01/25 10:08:17;;;;;;;26.55;15.23;;;;;;;2.68;80.87;98478.65;1644113;85;28455;-66
2021/01/25 10:10:43;;;;;;;24.45;14.47;;;;;;;2.77;81.05;98481.67;1644142;85;26707;-68
2021/01/25 10:13:09;;;;;;;25.20;15.57;;;;;;;2.86;80.77;98474.27;1644530;85;22126;-66
2021/01/25 10:15:34;;;;;;;23.77;14.80;;;;;;;2.92;80.81;98468.96;1644447;85;26487;-66
2021/01/25 10:18:01;;;;;;;23.07;14.57;;;;;;;2.90;79.98;98463.55;1646517;85;22824;-69
2021/01/25 10:20:28;;;;;;;24.32;14.25;;;;;;;2.93;80.20;98460.64;1644101;85;21325;-66
2021/01/25 10:22:53;;;;;;;26.00;15.15;;;;;;;2.78;80.60;98458.56;1644332;85;21196;-67
2021/01/25 10:25:19;;;;;;;25.37;15.40;;;;;;;2.78;80.66;98458.56;1645300;85;22326;-67
2021/01/25 10:27:45;;;;;;;22.93;13.97;;;;;;;2.79;80.88;98456.27;1653206;85;25738;-66
2021/01/25 10:30:12;;;;;;;23.30;14.53;;;;;;;2.62;81.05;98467.51;1665425;85;21885;-67
2021/01/25 10:32:38;;;;;;;25.75;15.43;;;;;;;2.56;81.31;98469.39;1666819;85;21162;-65
2021/01/25 10:35:06;;;;;;;23.15;14.50;;;;;;;2.63;81.42;98469.16;1667863;84;27221;-68
2021/01/25 10:37:32;;;;;;;25.27;16.05;;;;;;;2.66;81.45;98461.05;1639358;85;21733;-66
2021/01/25 10:39:57;;;;;;;24.17;15.20;;;;;;;2.64;81.75;98459.05;1665890;86;24467;-68
2021/01/25 10:42:23;;;;;;;26.97;15.63;;;;;;;2.59;81.89;98457.38;1666038;85;23794;-67
2021/01/25 10:44:49;;;;;;;27.05;16.55;;;;;;;2.67;81.61;98453.55;1666557;85;28506;-69
2021/01/25 10:47:18;;;;;;;27.65;17.30;;;;;;;2.70;81.17;98450.64;1665660;85;26808;-70
2021/01/25 10:49:42;;;;;;;;;;;;;;;2.79;81.28;98451.06;1668289;85;21292;-68
2021/01/25 10:52:08;;;;;;;26.45;16.48;;;;;;;2.59;80.77;98456.08;1665998;85;20246;-69
2021/01/25 10:54:34;;;;;;;28.83;17.17;;;;;;;2.33;81.88;98451.55;1666730;86;21837;-69
2021/01/25 10:57:00;;;;;;;28.38;16.57;;;;;;;2.46;81.93;98457.24;1666514;86;28714;-70
2021/01/25 10:59:25;;;;;;;28.20;16.93;;;;;;;2.41;81.45;98462.08;1666165;85;21902;-69
2021/01/25 11:01:51;;;;;;;26.95;16.60;;;;;;;2.44;82.01;98459.64;1666834;86;22030;-69
2021/01/25 11:04:17;;;;;;;25.17;15.67;;;;;;;2.34;82.27;98451.89;1666607;86;25691;-70
2021/01/25 11:06:46;;;;;;;27.53;17.60;;;;;;;2.41;82.31;98451.66;1665128;85;20982;-69
2021/01/25 11:09:12;;;;;;;32.95;18.30;;;;;;;2.48;82.31;98452.70;1640253;85;21201;-68
2021/01/25 11:11:38;;;;;;;30.75;17.62;;;;;;;2.45;82.39;98452.98;1665816;86;26511;-69
2021/01/25 11:14:03;;;;;;;31.30;18.97;;;;;;;2.44;82.50;98442.25;1665468;86;22058;-70
2021/01/25 11:16:29;;;;;;;29.27;17.93;;;;;;;2.58;82.51;98444.00;1666079;85;25518;-69
2021/01/25 11:18:55;;;;;;;25.97;17.47;;;;;;;2.60;82.23;98440.78;1665332;86;24751;-70
2021/01/25 11:21:21;;;;;;;33.28;19.10;;;;;;;2.54;81.85;98442.67;1666052;85;28344;-69
2021/01/25 11:23:49;;;;;;;30.70;19.32;;;;;;;2.57;81.82;98439.78;1666803;86;26808;-70
2021/01/25 11:26:14;;;;;;;;;;;;;;;2.43;82.11;98433.28;1667239;85;21221;-69
2021/01/25 11:28:39;;;;;;;35.17;18.52;;;;;;;2.44;82.12;98439.64;1653806;85;20192;-69